createdAt,value
2018-11-01T00:00:52.898Z,101341.35
2018-11-01T00:01:50.498Z,101341.20
2018-11-01T00:02:51.289Z,101340.82
2018-11-01T00:03:51.505Z,101340.84
2018-11-01T00:04:52.043Z,101341.27
2018-11-01T00:07:06.845Z,101343.91
2018-11-01T00:08:07.469Z,101343.32
2018-11-01T00:09:07.801Z,101343.32
2018-11-01T00:10:08.121Z,101343.44
2018-11-01T00:11:10.119Z,101342.59
2018-11-01T00:12:09.067Z,101342.53
2018-11-01T00:13:09.790Z,101342.27
2018-11-01T00:14:12.719Z,101341.94
2018-11-01T00:15:10.443Z,101341.77
2018-11-01T00:16:10.966Z,101341.44
2018-11-01T00:17:11.300Z,101340.77
2018-11-01T00:18:12.797Z,101340.17
2018-11-01T00:19:12.805Z,101339.19
2018-11-01T00:20:13.223Z,101338.52
2018-11-01T00:21:14.342Z,101337.86
2018-11-01T00:22:14.204Z,101337.29
2018-11-01T00:23:15.709Z,101336.97
2018-11-01T00:24:16.104Z,101336.31
2018-11-01T00:25:16.462Z,101335.57
2018-11-01T00:26:16.036Z,101335.28
2018-11-01T00:27:16.757Z,101335.37
2018-11-01T00:28:18.362Z,101335.39
2018-11-01T00:29:18.072Z,101335.31
2018-11-01T00:30:18.367Z,101335.49
2018-11-01T00:31:18.727Z,101335.84
2018-11-01T00:32:19.413Z,101335.86
2018-11-01T00:33:19.861Z,101336.13
2018-11-01T00:34:24.359Z,101336.39
2018-11-01T00:35:20.625Z,101336.66
2018-11-01T00:36:22.283Z,101336.93
2018-11-01T00:37:22.607Z,101336.77
2018-11-01T00:38:23.025Z,101336.63
2018-11-01T00:39:23.292Z,101336.75
2018-11-01T00:40:23.832Z,101337.03
2018-11-01T00:41:24.327Z,101336.98
2018-11-01T00:42:24.968Z,101337.31
2018-11-01T00:43:25.410Z,101337.27
2018-11-01T00:44:25.848Z,101337.12
2018-11-01T00:45:26.122Z,101336.62
2018-11-01T00:46:26.436Z,101336.09
2018-11-01T00:47:26.853Z,101335.34
2018-11-01T00:48:27.287Z,101334.77
2018-11-01T00:49:26.789Z,101333.72
2018-11-01T00:50:28.251Z,101333.73
2018-11-01T00:51:28.799Z,101333.23
2018-11-01T00:52:29.204Z,101332.41
2018-11-01T00:53:29.607Z,101332.01
2018-11-01T00:54:30.146Z,101331.52
2018-11-01T00:55:29.542Z,101330.61
2018-11-01T00:56:31.286Z,101330.28
2018-11-01T00:57:30.453Z,101329.88
2018-11-01T00:58:31.889Z,101329.39
2018-11-01T00:59:33.206Z,101328.83
2018-11-01T01:00:32.553Z,101328.50
2018-11-01T01:01:32.917Z,101328.01
2018-11-01T01:02:33.152Z,101328.19
2018-11-01T01:03:32.516Z,101327.45
2018-11-01T01:04:33.875Z,101327.12
2018-11-01T01:05:34.214Z,101327.39
2018-11-01T01:06:34.444Z,101327.57
2018-11-01T01:07:34.916Z,101327.67
2018-11-01T01:08:35.371Z,101327.34
2018-11-01T01:10:37.423Z,101333.47
2018-11-01T01:11:38.758Z,101332.88
2018-11-01T01:12:39.127Z,101333.31
2018-11-01T01:14:43.658Z,101358.63
2018-11-01T01:16:45.093Z,101358.48
2018-11-01T01:17:46.381Z,101357.73
2018-11-01T01:18:46.724Z,101357.31
2018-11-01T01:19:46.034Z,101356.98
2018-11-01T01:20:47.402Z,101356.89
2018-11-01T01:21:48.122Z,101357.14
2018-11-01T01:22:48.472Z,101357.31
2018-11-01T01:23:48.821Z,101357.34
2018-11-01T01:24:49.216Z,101357.24
2018-11-01T01:25:49.509Z,101357.41
2018-11-01T01:26:49.750Z,101357.66
2018-11-01T01:27:50.012Z,101357.23
2018-11-01T01:28:50.594Z,101357.52
2018-11-01T01:29:51.156Z,101357.75
2018-11-01T01:30:51.644Z,101357.52
2018-11-01T01:31:52.010Z,101357.84
2018-11-01T01:32:52.459Z,101357.77
2018-11-01T01:33:52.824Z,101357.30
2018-11-01T01:34:53.197Z,101356.61
2018-11-01T01:35:53.513Z,101356.02
2018-11-01T01:36:53.904Z,101355.47
2018-11-01T01:37:54.163Z,101354.38
2018-11-01T01:38:54.534Z,101353.39
2018-11-01T01:39:55.111Z,101352.54
2018-11-01T01:40:55.791Z,101352.23
2018-11-01T01:41:56.495Z,101352.05
2018-11-01T01:42:56.913Z,101351.96
2018-11-01T01:43:57.457Z,101351.91
2018-11-01T01:44:57.792Z,101351.06
2018-11-01T01:45:58.299Z,101351.00
2018-11-01T01:46:59.158Z,101350.32
2018-11-01T01:47:59.414Z,101350.06
2018-11-01T01:48:59.700Z,101349.67
2018-11-01T01:50:00.274Z,101349.34
2018-11-01T01:51:00.650Z,101349.23
2018-11-01T01:52:01.084Z,101349.15
2018-11-01T01:53:01.586Z,101349.15
2018-11-01T01:54:01.992Z,101348.91
2018-11-01T01:55:02.385Z,101348.41
2018-11-01T01:56:02.812Z,101348.33
2018-11-01T01:57:02.118Z,101347.23
2018-11-01T01:58:03.692Z,101346.40
2018-11-01T01:59:04.080Z,101345.73
2018-11-01T02:00:04.430Z,101345.15
2018-11-01T02:01:05.729Z,101344.03
2018-11-01T02:02:05.022Z,101343.20
2018-11-01T02:02:14.954Z,101343.47
2018-11-01T02:03:14.221Z,101343.08
2018-11-01T02:04:14.838Z,101343.16
2018-11-01T02:05:15.101Z,101343.26
2018-11-01T02:06:15.531Z,101343.41
2018-11-01T02:07:15.861Z,101343.09
2018-11-01T02:08:16.303Z,101342.75
2018-11-01T02:09:16.730Z,101342.44
2018-11-01T02:10:17.005Z,101341.37
2018-11-01T02:11:16.419Z,101339.85
2018-11-01T02:12:18.040Z,101338.37
2018-11-01T02:13:18.351Z,101337.11
2018-11-01T02:14:18.683Z,101335.13
2018-11-01T02:15:18.981Z,101332.84
2018-11-01T02:16:19.468Z,101330.86
2018-11-01T02:17:19.955Z,101329.34
2018-11-01T02:18:20.374Z,101327.19
2018-11-01T02:19:20.681Z,101325.88
2018-11-01T02:20:20.959Z,101324.28
2018-11-01T02:21:21.420Z,101322.27
2018-11-01T02:22:21.680Z,101321.37
2018-11-01T02:23:22.249Z,101319.52
2018-11-01T02:24:22.557Z,101317.76
2018-11-01T02:25:22.883Z,101315.86
2018-11-01T02:26:23.218Z,101314.34
2018-11-01T02:27:23.471Z,101314.09
2018-11-01T02:28:23.753Z,101313.02
2018-11-01T02:29:24.097Z,101312.36
2018-11-01T02:30:24.461Z,101312.20
2018-11-01T02:31:24.981Z,101312.49
2018-11-01T02:32:24.352Z,101312.67
2018-11-01T02:33:25.768Z,101312.25
2018-11-01T02:34:26.093Z,101312.77
2018-11-01T02:35:26.393Z,101313.11
2018-11-01T02:36:26.982Z,101313.40
2018-11-01T02:37:27.318Z,101314.48
2018-11-01T02:38:27.752Z,101315.41
2018-11-01T02:39:26.997Z,101316.85
2018-11-01T02:40:28.636Z,101317.69
2018-11-01T02:41:29.215Z,101319.05
2018-11-01T02:42:29.667Z,101319.48
2018-11-01T02:43:30.301Z,101320.14
2018-11-01T02:44:30.690Z,101320.50
2018-11-01T02:45:31.006Z,101320.66
2018-11-01T02:46:31.548Z,101321.02
2018-11-01T02:47:31.821Z,101320.92
2018-11-01T02:47:40.467Z,101319.15
2018-11-01T02:48:41.202Z,101318.92
2018-11-01T02:49:41.669Z,101319.26
2018-11-01T02:50:42.021Z,101318.33
2018-11-01T02:51:42.439Z,101318.08
2018-11-01T02:52:42.814Z,101317.98
2018-11-01T02:53:43.138Z,101317.91
2018-11-01T02:54:43.383Z,101317.74
2018-11-01T02:55:43.692Z,101318.16
2018-11-01T02:56:44.221Z,101318.42
2018-11-01T02:57:44.465Z,101318.41
2018-11-01T02:58:44.967Z,101318.25
2018-11-01T02:59:45.382Z,101317.55
2018-11-01T03:00:44.731Z,101316.90
2018-11-01T03:01:46.031Z,101315.20
2018-11-01T03:02:46.764Z,101314.11
2018-11-01T03:03:47.106Z,101312.11
2018-11-01T03:04:47.398Z,101311.34
2018-11-01T03:05:47.783Z,101309.65
2018-11-01T03:06:48.159Z,101308.47
2018-11-01T03:07:48.425Z,101307.37
2018-11-01T03:08:49.053Z,101306.13
2018-11-01T03:09:49.480Z,101304.70
2018-11-01T03:10:49.956Z,101304.02
2018-11-01T03:11:50.272Z,101302.67
2018-11-01T03:12:51.137Z,101301.16
2018-11-01T03:13:51.645Z,101300.20
2018-11-01T03:14:52.021Z,101298.69
2018-11-01T03:15:52.411Z,101297.08
2018-11-01T03:16:52.792Z,101295.39
2018-11-01T03:17:52.350Z,101294.47
2018-11-01T03:18:53.648Z,101292.45
2018-11-01T03:19:54.048Z,101290.92
2018-11-01T03:20:54.502Z,101289.23
2018-11-01T03:21:54.999Z,101288.22
2018-11-01T03:22:55.534Z,101287.29
2018-11-01T03:23:55.858Z,101286.04
2018-11-01T03:24:56.197Z,101284.79
2018-11-01T03:25:56.667Z,101283.63
2018-11-01T03:26:57.139Z,101282.45
2018-11-01T03:27:57.365Z,101280.94
2018-11-01T03:28:57.633Z,101279.94
2018-11-01T03:29:58.119Z,101278.76
2018-11-01T03:30:57.543Z,101276.93
2018-11-01T03:31:59.295Z,101275.36
2018-11-01T03:32:59.849Z,101274.04
2018-11-01T03:34:00.154Z,101272.80
2018-11-01T03:34:11.233Z,101250.59
2018-11-01T03:35:12.560Z,101250.92
2018-11-01T03:36:12.072Z,101250.92
2018-11-01T03:37:13.372Z,101251.09
2018-11-01T03:38:13.923Z,101251.77
2018-11-01T03:39:13.171Z,101252.48
2018-11-01T03:40:14.475Z,101253.16
2018-11-01T03:41:13.888Z,101254.16
2018-11-01T03:42:15.145Z,101254.83
2018-11-01T03:43:15.420Z,101255.11
2018-11-01T03:44:15.719Z,101255.77
2018-11-01T03:45:16.114Z,101256.33
2018-11-01T03:46:16.419Z,101256.27
2018-11-01T03:47:16.693Z,101256.86
2018-11-01T03:48:17.049Z,101257.02
2018-11-01T03:49:17.308Z,101256.77
2018-11-01T03:50:17.635Z,101256.97
2018-11-01T03:51:17.921Z,101256.95
2018-11-01T03:52:18.214Z,101256.89
2018-11-01T03:53:17.442Z,101256.55
2018-11-01T03:54:18.729Z,101256.41
2018-11-01T03:55:19.396Z,101256.73
2018-11-01T03:56:19.784Z,101257.33
2018-11-01T03:57:20.352Z,101257.17
2018-11-01T03:58:20.627Z,101256.68
2018-11-01T03:59:20.910Z,101257.11
2018-11-01T04:00:21.174Z,101257.05
2018-11-01T04:01:21.480Z,101256.98
2018-11-01T04:02:21.839Z,101257.30
2018-11-01T04:03:22.236Z,101258.22
2018-11-01T04:04:22.610Z,101258.33
2018-11-01T04:05:23.301Z,101259.31
2018-11-01T04:06:23.608Z,101260.01
2018-11-01T04:07:23.934Z,101260.77
2018-11-01T04:08:24.243Z,101261.03
2018-11-01T04:09:24.491Z,101261.54
2018-11-01T04:10:24.826Z,101262.22
2018-11-01T04:11:25.161Z,101263.06
2018-11-01T04:12:25.518Z,101263.41
2018-11-01T04:13:25.859Z,101263.58
2018-11-01T04:14:25.109Z,101264.09
2018-11-01T04:15:26.424Z,101264.72
2018-11-01T04:16:26.865Z,101265.30
2018-11-01T04:17:27.438Z,101265.15
2018-11-01T04:18:27.890Z,101265.08
2018-11-01T04:19:28.163Z,101264.67
2018-11-01T04:20:28.736Z,101265.00
2018-11-01T04:21:29.401Z,101264.77
2018-11-01T04:22:30.184Z,101263.60
2018-11-01T04:22:44.210Z,101249.02
2018-11-01T04:23:45.337Z,101249.19
2018-11-01T04:24:44.734Z,101248.96
2018-11-01T04:25:45.114Z,101248.78
2018-11-01T04:26:45.725Z,101248.13
2018-11-01T04:27:46.039Z,101247.88
2018-11-01T04:28:46.520Z,101247.55
2018-11-01T04:29:47.021Z,101246.71
2018-11-01T04:30:47.436Z,101246.29
2018-11-01T04:31:47.952Z,101246.45
2018-11-01T04:32:48.186Z,101246.03
2018-11-01T04:33:48.858Z,101246.20
2018-11-01T04:34:48.034Z,101246.03
2018-11-01T04:35:49.609Z,101246.47
2018-11-01T04:36:50.040Z,101246.64
2018-11-01T04:37:50.257Z,101246.05
2018-11-01T04:38:50.490Z,101246.05
2018-11-01T04:39:51.132Z,101246.23
2018-11-01T04:40:51.508Z,101246.73
2018-11-01T04:41:51.932Z,101247.48
2018-11-01T04:42:52.178Z,101247.81
2018-11-01T04:43:52.995Z,101248.09
2018-11-01T04:44:53.501Z,101247.49
2018-11-01T04:45:53.892Z,101248.00
2018-11-01T04:46:54.318Z,101248.23
2018-11-01T04:47:54.674Z,101248.58
2018-11-01T04:48:54.218Z,101248.58
2018-11-01T04:49:55.452Z,101248.31
2018-11-01T04:50:55.733Z,101247.81
2018-11-01T04:51:56.235Z,101246.98
2018-11-01T04:52:58.038Z,101246.76
2018-11-01T04:53:57.387Z,101246.42
2018-11-01T04:54:57.676Z,101245.24
2018-11-01T04:55:57.995Z,101244.48
2018-11-01T04:56:58.348Z,101243.17
2018-11-01T04:57:58.631Z,101242.36
2018-11-01T04:58:58.981Z,101241.17
2018-11-01T04:59:59.259Z,101240.08
2018-11-01T05:00:59.580Z,101239.02
2018-11-01T05:02:00.568Z,101238.25
2018-11-01T05:03:00.875Z,101237.28
2018-11-01T05:04:01.107Z,101237.03
2018-11-01T05:05:01.290Z,101236.98
2018-11-01T05:06:00.459Z,101236.98
2018-11-01T05:07:01.872Z,101237.52
2018-11-01T05:08:02.175Z,101238.04
2018-11-01T05:09:02.348Z,101237.95
2018-11-01T05:10:02.582Z,101237.89
2018-11-01T05:10:10.702Z,101245.69
2018-11-01T05:11:12.000Z,101244.93
2018-11-01T05:12:15.271Z,101245.19
2018-11-01T05:13:13.748Z,101245.09
2018-11-01T05:14:13.169Z,101245.42
2018-11-01T05:15:13.496Z,101246.03
2018-11-01T05:16:12.930Z,101246.34
2018-11-01T05:17:14.179Z,101246.80
2018-11-01T05:18:14.404Z,101247.45
2018-11-01T05:19:14.887Z,101248.03
2018-11-01T05:20:15.144Z,101248.36
2018-11-01T05:21:15.434Z,101248.78
2018-11-01T05:22:15.752Z,101249.78
2018-11-01T05:23:16.294Z,101250.64
2018-11-01T05:24:16.691Z,101251.70
2018-11-01T05:25:16.949Z,101252.97
2018-11-01T05:26:17.320Z,101254.99
2018-11-01T05:27:16.741Z,101256.73
2018-11-01T05:28:17.980Z,101258.16
2018-11-01T05:29:18.172Z,101259.31
2018-11-01T05:30:17.383Z,101260.58
2018-11-01T05:31:18.773Z,101260.58
2018-11-01T05:32:19.074Z,101261.17
2018-11-01T05:33:19.388Z,101261.73
2018-11-01T05:34:19.694Z,101262.56
2018-11-01T05:35:19.053Z,101263.06
2018-11-01T05:36:20.291Z,101263.90
2018-11-01T05:37:20.549Z,101264.73
2018-11-01T05:38:20.759Z,101265.40
2018-11-01T05:39:20.977Z,101265.91
2018-11-01T05:40:21.222Z,101266.98
2018-11-01T05:41:21.669Z,101267.66
2018-11-01T05:42:21.980Z,101268.42
2018-11-01T05:43:22.310Z,101269.09
2018-11-01T05:44:22.683Z,101269.33
2018-11-01T05:45:22.893Z,101270.52
2018-11-01T05:46:23.306Z,101270.93
2018-11-01T05:47:23.779Z,101271.78
2018-11-01T05:48:24.233Z,101272.19
2018-11-01T05:49:24.501Z,101272.86
2018-11-01T05:50:24.693Z,101272.86
2018-11-01T05:51:25.277Z,101273.17
2018-11-01T05:52:25.500Z,101273.27
2018-11-01T05:53:25.877Z,101273.44
2018-11-01T05:54:26.114Z,101273.44
2018-11-01T05:55:26.715Z,101272.94
2018-11-01T05:56:27.001Z,101273.27
2018-11-01T05:57:27.471Z,101273.27
2018-11-01T05:58:27.849Z,101272.94
2018-11-01T05:59:27.096Z,101273.02
2018-11-01T05:59:35.165Z,101274.39
2018-11-01T06:00:36.704Z,101273.80
2018-11-01T06:01:36.936Z,101274.47
2018-11-01T06:02:37.290Z,101274.63
2018-11-01T06:03:37.541Z,101274.72
2018-11-01T06:04:38.141Z,101274.89
2018-11-01T06:05:38.438Z,101274.81
2018-11-01T06:06:37.818Z,101274.96
2018-11-01T06:07:39.020Z,101274.97
2018-11-01T06:08:39.325Z,101274.95
2018-11-01T06:09:39.610Z,101274.54
2018-11-01T06:10:39.893Z,101274.55
2018-11-01T06:11:40.244Z,101274.70
2018-11-01T06:12:40.498Z,101274.79
2018-11-01T06:13:40.869Z,101274.29
2018-11-01T06:14:41.207Z,101273.95
2018-11-01T06:15:40.516Z,101274.13
2018-11-01T06:16:41.875Z,101273.53
2018-11-01T06:17:42.249Z,101273.36
2018-11-01T06:18:42.546Z,101273.70
2018-11-01T06:19:42.802Z,101274.03
2018-11-01T06:20:43.073Z,101273.72
2018-11-01T06:21:42.260Z,101274.97
2018-11-01T06:22:43.567Z,101275.78
2018-11-01T06:23:43.885Z,101277.63
2018-11-01T06:24:43.307Z,101278.64
2018-11-01T06:25:44.639Z,101279.64
2018-11-01T06:26:44.917Z,101280.31
2018-11-01T06:27:45.215Z,101281.57
2018-11-01T06:28:45.559Z,101281.91
2018-11-01T06:29:44.697Z,101282.72
2018-11-01T06:30:45.946Z,101284.07
2018-11-01T06:31:46.292Z,101285.72
2018-11-01T06:32:46.531Z,101286.81
2018-11-01T06:33:46.809Z,101288.64
2018-11-01T06:34:47.241Z,101289.53
2018-11-01T06:35:46.539Z,101291.14
2018-11-01T06:36:47.866Z,101293.12
2018-11-01T06:37:48.234Z,101295.05
2018-11-01T06:38:48.504Z,101296.87
2018-11-01T06:39:48.882Z,101298.55
2018-11-01T06:40:49.211Z,101299.78
2018-11-01T06:41:49.539Z,101301.19
2018-11-01T06:42:49.825Z,101302.94
2018-11-01T06:43:50.073Z,101304.69
2018-11-01T06:44:50.542Z,101306.44
2018-11-01T06:45:49.805Z,101307.78
2018-11-01T06:46:51.426Z,101309.02
2018-11-01T06:47:51.724Z,101309.00
2018-11-01T06:48:52.036Z,101309.34
2018-11-01T06:49:52.374Z,101309.44
2018-11-01T06:50:00.845Z,101306.73
2018-11-01T06:51:02.245Z,101306.47
2018-11-01T06:52:02.560Z,101306.39
2018-11-01T06:53:02.788Z,101306.30
2018-11-01T06:54:03.126Z,101306.05
2018-11-01T06:55:03.455Z,101305.38
2018-11-01T06:56:04.433Z,101304.88
2018-11-01T06:57:04.803Z,101304.64
2018-11-01T06:58:04.094Z,101303.80
2018-11-01T06:59:04.774Z,101302.80
2018-11-01T07:00:04.861Z,101302.30
2018-11-01T07:01:06.225Z,101301.13
2018-11-01T07:02:06.678Z,101300.80
2018-11-01T07:03:07.094Z,101299.62
2018-11-01T07:04:07.333Z,101298.72
2018-11-01T07:05:07.821Z,101297.80
2018-11-01T07:06:08.217Z,101296.63
2018-11-01T07:07:08.491Z,101295.86
2018-11-01T07:08:08.828Z,101294.27
2018-11-01T07:09:09.112Z,101292.95
2018-11-01T07:10:09.568Z,101291.77
2018-11-01T07:11:09.865Z,101290.33
2018-11-01T07:12:10.382Z,101289.50
2018-11-01T07:13:10.933Z,101288.58
2018-11-01T07:14:11.307Z,101288.06
2018-11-01T07:15:11.540Z,101287.05
2018-11-01T07:16:11.910Z,101286.12
2018-11-01T07:17:12.378Z,101285.53
2018-11-01T07:18:11.607Z,101284.25
2018-11-01T07:19:13.003Z,101283.00
2018-11-01T07:20:13.285Z,101282.63
2018-11-01T07:21:13.561Z,101281.97
2018-11-01T07:22:13.974Z,101280.94
2018-11-01T07:23:14.337Z,101280.33
2018-11-01T07:24:14.580Z,101278.83
2018-11-01T07:25:14.939Z,101278.05
2018-11-01T07:26:15.451Z,101276.28
2018-11-01T07:27:14.613Z,101274.84
2018-11-01T07:28:16.025Z,101273.81
2018-11-01T07:29:16.399Z,101272.89
2018-11-01T07:30:15.631Z,101271.78
2018-11-01T07:31:16.926Z,101271.02
2018-11-01T07:33:48.172Z,101252.17
2018-11-01T07:34:49.456Z,101251.95
2018-11-01T07:35:49.888Z,101251.50
2018-11-01T07:36:50.238Z,101251.01
2018-11-01T07:37:50.589Z,101250.65
2018-11-01T07:39:21.595Z,101239.19
2018-11-01T07:40:22.274Z,101238.68
2018-11-01T07:41:22.499Z,101238.68
2018-11-01T07:42:24.025Z,101238.34
2018-11-01T07:43:24.269Z,101238.34
2018-11-01T07:44:24.526Z,101237.73
2018-11-01T07:45:24.855Z,101237.48
2018-11-01T07:46:25.496Z,101236.58
2018-11-01T07:47:25.752Z,101236.05
2018-11-01T07:48:26.101Z,101234.89
2018-11-01T07:49:25.714Z,101233.20
2018-11-01T07:50:26.960Z,101232.09
2018-11-01T07:51:27.299Z,101231.36
2018-11-01T07:52:27.934Z,101231.14
2018-11-01T07:53:28.469Z,101230.23
2018-11-01T07:54:29.003Z,101229.45
2018-11-01T07:55:29.480Z,101228.60
2018-11-01T07:56:29.834Z,101227.59
2018-11-01T07:57:30.678Z,101227.16
2018-11-01T07:58:31.492Z,101226.06
2018-11-01T07:59:30.722Z,101225.11
2018-11-01T08:00:31.957Z,101224.02
2018-11-01T08:01:32.727Z,101222.89
2018-11-01T08:02:33.164Z,101221.88
2018-11-01T08:03:33.665Z,101221.02
2018-11-01T08:04:33.966Z,101219.67
2018-11-01T08:05:33.259Z,101218.32
2018-11-01T08:06:34.609Z,101216.80
2018-11-01T08:07:34.836Z,101215.38
2018-11-01T08:08:35.157Z,101213.58
2018-11-01T08:09:35.592Z,101212.07
2018-11-01T08:10:35.922Z,101210.47
2018-11-01T08:11:36.474Z,101208.62
2018-11-01T08:12:36.212Z,101207.59
2018-11-01T08:13:37.647Z,101206.25
2018-11-01T08:14:37.944Z,101204.95
2018-11-01T08:15:38.556Z,101204.17
2018-11-01T08:16:38.243Z,101203.00
2018-11-01T08:17:38.655Z,101202.23
2018-11-01T08:18:40.300Z,101201.02
2018-11-01T08:19:40.648Z,101200.52
2018-11-01T08:20:40.470Z,101199.41
2018-11-01T08:21:40.838Z,101198.37
2018-11-01T08:22:42.163Z,101197.94
2018-11-01T08:23:42.980Z,101197.34
2018-11-01T08:24:43.299Z,101196.84
2018-11-01T08:25:43.679Z,101195.84
2018-11-01T08:26:44.333Z,101195.09
2018-11-01T08:27:45.035Z,101194.31
2018-11-01T08:28:45.737Z,101193.81
2018-11-01T08:29:46.322Z,101193.25
2018-11-01T08:30:46.867Z,101193.08
2018-11-01T08:30:55.967Z,101190.82
2018-11-01T08:31:57.332Z,101190.41
2018-11-01T08:32:56.561Z,101190.73
2018-11-01T08:33:57.225Z,101190.64
2018-11-01T08:34:57.574Z,101190.17
2018-11-01T08:35:57.877Z,101190.24
2018-11-01T08:36:57.943Z,101189.69
2018-11-01T08:37:58.441Z,101190.08
2018-11-01T08:38:58.761Z,101189.91
2018-11-01T08:39:59.380Z,101190.17
2018-11-01T08:40:59.248Z,101189.66
2018-11-01T08:41:59.674Z,101189.47
2018-11-01T08:43:01.049Z,101189.06
2018-11-01T08:44:01.327Z,101188.91
2018-11-01T08:45:02.861Z,101188.21
2018-11-01T08:46:02.322Z,101188.12
2018-11-01T08:47:02.739Z,101188.28
2018-11-01T08:48:03.002Z,101188.36
2018-11-01T08:49:03.375Z,101188.79
2018-11-01T08:50:03.808Z,101188.70
2018-11-01T08:51:03.030Z,101189.21
2018-11-01T08:52:04.416Z,101189.80
2018-11-01T08:53:04.856Z,101190.63
2018-11-01T08:54:05.308Z,101191.88
2018-11-01T08:55:06.265Z,101192.55
2018-11-01T08:56:05.858Z,101193.47
2018-11-01T08:57:06.252Z,101194.39
2018-11-01T08:58:06.707Z,101195.72
2018-11-01T08:59:07.185Z,101196.95
2018-11-01T09:00:07.688Z,101197.97
2018-11-01T09:01:08.005Z,101199.95
2018-11-01T09:02:08.462Z,101201.11
2018-11-01T09:03:13.606Z,101202.77
2018-11-01T09:04:09.078Z,101204.09
2018-11-01T09:05:08.809Z,101205.25
2018-11-01T09:06:10.505Z,101206.49
2018-11-01T09:07:09.680Z,101207.28
2018-11-01T09:08:11.299Z,101208.20
2018-11-01T09:09:10.440Z,101208.83
2018-11-01T09:10:11.776Z,101209.23
2018-11-01T09:11:12.365Z,101210.30
2018-11-01T09:12:12.710Z,101210.52
2018-11-01T09:13:13.168Z,101211.18
2018-11-01T09:14:12.606Z,101212.17
2018-11-01T09:15:12.832Z,101212.49
2018-11-01T09:16:13.351Z,101212.90
2018-11-01T09:17:14.424Z,101212.88
2018-11-01T09:18:14.818Z,101213.52
2018-11-01T09:19:14.287Z,101214.19
2018-11-01T09:20:14.512Z,101214.73
2018-11-01T09:21:15.796Z,101215.39
2018-11-01T09:22:16.236Z,101217.36
2018-11-01T09:23:16.616Z,101218.11
2018-11-01T09:24:17.003Z,101219.23
2018-11-01T09:24:25.631Z,101235.94
2018-11-01T09:25:27.071Z,101236.11
2018-11-01T09:26:27.042Z,101235.94
2018-11-01T09:27:27.437Z,101236.11
2018-11-01T09:28:27.745Z,101236.68
2018-11-01T09:29:28.404Z,101236.75
2018-11-01T09:30:28.749Z,101237.73
2018-11-01T09:31:29.509Z,101238.14
2018-11-01T09:32:29.915Z,101238.43
2018-11-01T09:33:30.410Z,101238.67
2018-11-01T09:34:30.904Z,101239.16
2018-11-01T09:35:31.502Z,101239.38
2018-11-01T09:36:31.973Z,101239.52
2018-11-01T09:37:32.343Z,101239.94
2018-11-01T09:38:31.746Z,101240.02
2018-11-01T09:39:33.148Z,101240.50
2018-11-01T09:40:33.984Z,101240.98
2018-11-01T09:41:34.634Z,101241.48
2018-11-01T09:42:35.218Z,101241.50
2018-11-01T09:43:35.596Z,101241.67
2018-11-01T09:44:35.988Z,101241.42
2018-11-01T09:45:36.287Z,101241.36
2018-11-01T09:46:37.228Z,101242.20
2018-11-01T09:47:36.687Z,101241.94
2018-11-01T09:48:36.576Z,101242.28
2018-11-01T09:49:37.936Z,101242.11
2018-11-01T09:50:38.616Z,101242.61
2018-11-01T09:51:38.938Z,101242.02
2018-11-01T09:52:39.373Z,101242.27
2018-11-01T09:53:39.649Z,101242.94
2018-11-01T09:54:40.118Z,101243.87
2018-11-01T09:55:40.719Z,101244.13
2018-11-01T09:56:39.998Z,101244.77
2018-11-01T09:57:41.266Z,101245.45
2018-11-01T09:58:41.686Z,101246.02
2018-11-01T09:59:42.036Z,101246.16
2018-11-01T10:00:42.381Z,101246.48
2018-11-01T10:01:42.793Z,101246.36
2018-11-01T10:02:43.073Z,101246.02
2018-11-01T10:03:43.513Z,101245.30
2018-11-01T10:04:43.798Z,101244.18
2018-11-01T10:05:44.248Z,101243.14
2018-11-01T10:06:44.486Z,101242.44
2018-11-01T10:07:43.921Z,101241.66
2018-11-01T10:08:45.235Z,101240.67
2018-11-01T10:09:45.652Z,101239.65
2018-11-01T10:10:45.964Z,101238.09
2018-11-01T10:11:46.108Z,101237.11
2018-11-01T10:11:57.402Z,101217.73
2018-11-01T10:12:59.072Z,101217.14
2018-11-01T10:13:59.429Z,101217.23
2018-11-01T10:14:59.816Z,101217.16
2018-11-01T10:15:59.308Z,101217.41
2018-11-01T10:16:59.816Z,101218.48
2018-11-01T10:18:00.259Z,101218.95
2018-11-01T10:19:00.113Z,101219.30
2018-11-01T10:20:01.619Z,101220.03
2018-11-01T10:21:01.975Z,101219.75
2018-11-01T10:22:02.319Z,101219.56
2018-11-01T10:23:02.112Z,101219.55
2018-11-01T10:24:02.514Z,101219.70
2018-11-01T10:25:03.930Z,101220.61
2018-11-01T10:26:03.316Z,101221.81
2018-11-01T10:27:04.796Z,101223.48
2018-11-01T10:28:05.201Z,101223.84
2018-11-01T10:29:05.550Z,101224.09
2018-11-01T10:30:05.888Z,101224.38
2018-11-01T10:31:06.249Z,101224.20
2018-11-01T10:32:06.538Z,101224.16
2018-11-01T10:33:06.947Z,101224.64
2018-11-01T10:34:06.206Z,101224.93
2018-11-01T10:35:06.881Z,101225.05
2018-11-01T10:36:08.161Z,101225.15
2018-11-01T10:37:09.686Z,101224.77
2018-11-01T10:38:09.039Z,101223.73
2018-11-01T10:39:09.283Z,101222.63
2018-11-01T10:40:09.807Z,101221.35
2018-11-01T10:41:10.078Z,101219.40
2018-11-01T10:42:10.387Z,101218.70
2018-11-01T10:43:10.761Z,101218.20
2018-11-01T10:44:11.099Z,101217.37
2018-11-01T10:45:11.415Z,101217.84
2018-11-01T10:46:11.753Z,101218.36
2018-11-01T10:47:12.113Z,101218.92
2018-11-01T10:48:12.459Z,101219.40
2018-11-01T10:49:13.078Z,101219.55
2018-11-01T10:50:13.378Z,101219.62
2018-11-01T10:51:13.926Z,101219.48
2018-11-01T10:52:14.189Z,101219.13
2018-11-01T10:53:14.472Z,101218.92
2018-11-01T10:54:14.805Z,101218.98
2018-11-01T10:55:14.043Z,101218.80
2018-11-01T10:56:15.561Z,101219.42
2018-11-01T10:57:15.849Z,101219.55
2018-11-01T10:58:16.157Z,101220.42
2018-11-01T10:59:16.537Z,101221.41
2018-11-01T11:00:17.285Z,101222.12
2018-11-01T11:01:16.379Z,101222.67
2018-11-01T11:02:16.679Z,101223.21
2018-11-01T11:03:17.010Z,101223.75
2018-11-01T11:04:18.348Z,101224.16
2018-11-01T11:05:18.646Z,101224.03
2018-11-01T11:06:18.980Z,101224.16
2018-11-01T11:07:18.328Z,101224.53
2018-11-01T11:07:26.877Z,101224.96
2018-11-01T11:08:27.468Z,101224.67
2018-11-01T11:09:27.746Z,101224.17
2018-11-01T11:10:28.100Z,101224.13
2018-11-01T11:11:28.466Z,101224.05
2018-11-01T11:12:29.999Z,101223.92
2018-11-01T11:13:29.600Z,101224.18
2018-11-01T11:14:30.004Z,101223.84
2018-11-01T11:15:29.384Z,101223.83
2018-11-01T11:16:30.575Z,101223.88
2018-11-01T11:17:30.876Z,101223.72
2018-11-01T11:18:31.293Z,101223.69
2018-11-01T11:19:31.546Z,101224.09
2018-11-01T11:20:32.183Z,101224.15
2018-11-01T11:21:31.478Z,101223.73
2018-11-01T11:22:32.957Z,101223.29
2018-11-01T11:23:33.240Z,101222.93
2018-11-01T11:24:33.488Z,101222.48
2018-11-01T11:25:34.233Z,101222.30
2018-11-01T11:26:34.524Z,101221.77